Time;durP1;ratioP1;P1;durP2;ratioP2;P2;SDS_P1;SDS_P2;PMS_P1;PMS_P2;Temp;Humidity;BMP_temperature;BMP_pressure;BME280_temperature;BME280_humidity;BME280_pressure;Samples;Min_cycle;Max_cycle;Signal;HPM_P1;HPM_P2
2024/02/03 00:00:06;;;;;;;2.35;2.10;;;8.50;79.40;;;;;;5047698;28;20037;-63
2024/02/03 00:02:32;;;;;;;3.80;2.28;;;8.50;79.30;;;;;;5042601;28;20103;-63
2024/02/03 00:04:58;;;;;;;2.30;2.10;;;8.50;79.30;;;;;;5044846;28;20037;-64
2024/02/03 00:07:24;;;;;;;2.83;2.38;;;8.40;79.10;;;;;;5049829;28;20049;-63
2024/02/03 00:09:50;;;;;;;2.55;2.33;;;8.50;79.10;;;;;;5045246;28;20091;-63
2024/02/03 00:12:18;;;;;;;2.83;2.40;;;8.50;79.00;;;;;;5041381;28;20037;-64
2024/02/03 00:14:43;;;;;;;2.47;2.28;;;8.40;78.90;;;;;;5046536;28;20098;-62
2024/02/03 00:17:09;;;;;;;2.47;2.28;;;8.40;78.70;;;;;;5040901;28;20037;-63
2024/02/03 00:19:35;;;;;;;2.88;1.90;;;8.40;78.80;;;;;;5040736;28;20044;-63
2024/02/03 00:22:00;;;;;;;2.40;2.20;;;8.40;78.80;;;;;;5045217;28;20044;-63
2024/02/03 00:24:26;;;;;;;2.35;2.15;;;8.40;78.70;;;;;;5041049;28;20053;-63
2024/02/03 00:26:53;;;;;;;3.40;2.50;;;8.30;78.60;;;;;;5042698;28;21286;-63
2024/02/03 00:29:19;;;;;;;3.33;2.30;;;8.30;78.30;;;;;;5043602;28;20040;-62
2024/02/03 00:31:44;;;;;;;2.80;2.38;;;8.20;78.30;;;;;;5048050;28;21989;-61
2024/02/03 00:34:10;;;;;;;3.90;2.28;;;8.30;78.40;;;;;;5042340;28;20481;-61
2024/02/03 00:36:35;;;;;;;2.75;2.50;;;8.20;78.40;;;;;;5043309;28;20021;-64
2024/02/03 00:39:02;;;;;;;2.42;2.20;;;8.20;78.30;;;;;;5047976;28;20545;-64
2024/02/03 00:41:28;;;;;;;3.03;2.70;;;8.10;78.20;;;;;;5041241;28;20048;-63
2024/02/03 00:43:54;;;;;;;3.33;2.90;;;8.00;78.20;;;;;;5045911;28;20040;-63
2024/02/03 00:46:19;;;;;;;3.47;3.08;;;7.90;78.40;;;;;;5049212;28;20519;-64
2024/02/03 00:48:45;;;;;;;3.65;3.08;;;7.90;78.60;;;;;;5044602;28;20037;-63
2024/02/03 00:51:11;;;;;;;3.60;2.80;;;7.80;78.80;;;;;;5049544;28;20029;-63
2024/02/03 00:53:41;;;;;;;3.50;2.78;;;7.70;79.00;;;;;;5046035;28;20030;-63
2024/02/03 00:56:08;;;;;;;3.33;2.70;;;7.70;79.20;;;;;;5046147;28;20427;-62
2024/02/03 00:58:33;;;;;;;3.05;2.53;;;7.60;79.40;;;;;;5043796;28;20493;-63
2024/02/03 01:00:59;;;;;;;2.70;2.42;;;7.60;79.60;;;;;;5049199;28;20048;-63
2024/02/03 01:03:25;;;;;;;3.40;2.67;;;7.50;79.70;;;;;;5050158;28;20032;-63
2024/02/03 01:05:51;;;;;;;2.75;2.53;;;7.50;80.00;;;;;;5045840;28;20120;-63
2024/02/03 01:08:18;;;;;;;3.45;2.90;;;7.50;80.20;;;;;;5049757;28;20037;-62
2024/02/03 01:10:44;;;;;;;3.20;2.90;;;7.40;80.30;;;;;;5049138;28;20399;-63
2024/02/03 01:13:09;;;;;;;2.90;2.53;;;7.40;80.50;;;;;;5051785;28;20028;-62
2024/02/03 01:15:35;;;;;;;3.83;2.45;;;7.40;80.70;;;;;;5048139;28;20037;-64
2024/02/03 01:18:03;;;;;;;2.90;2.65;;;7.30;80.80;;;;;;5049285;28;20029;-63
2024/02/03 01:20:29;;;;;;;3.20;2.60;;;7.30;80.90;;;;;;5053550;28;20396;-61
2024/02/03 01:22:55;;;;;;;2.70;2.40;;;7.20;81.00;;;;;;5047316;28;20036;-63
2024/02/03 01:25:20;;;;;;;3.20;2.30;;;7.30;81.10;;;;;;5050830;28;20037;-63
2024/02/03 01:27:46;;;;;;;2.90;2.40;;;7.30;81.20;;;;;;5055008;28;20086;-63
2024/02/03 01:30:12;;;;;;;2.65;2.45;;;7.20;81.20;;;;;;5049176;28;20083;-63
2024/02/03 01:32:38;;;;;;;3.55;2.72;;;7.30;81.10;;;;;;5052400;28;20025;-63
2024/02/03 01:35:04;;;;;;;2.95;2.65;;;7.20;80.90;;;;;;5053112;28;20175;-62
2024/02/03 01:37:30;;;;;;;2.67;2.30;;;7.20;80.80;;;;;;5049156;28;20750;-63
2024/02/03 01:39:56;;;;;;;3.28;2.55;;;7.20;80.80;;;;;;5054669;28;20131;-63
2024/02/03 01:42:22;;;;;;;2.72;2.53;;;7.20;80.80;;;;;;5040835;28;20078;-61
2024/02/03 01:44:48;;;;;;;2.83;2.42;;;7.20;80.80;;;;;;5042204;28;20069;-63
2024/02/03 01:47:15;;;;;;;2.90;2.53;;;7.10;80.60;;;;;;5040859;28;20061;-62
2024/02/03 01:49:40;;;;;;;3.13;2.58;;;7.10;80.60;;;;;;5038322;28;20052;-63
2024/02/03 01:52:06;;;;;;;3.72;2.47;;;7.10;80.50;;;;;;5041056;28;20481;-62
2024/02/03 01:54:33;;;;;;;3.83;3.03;;;7.00;80.40;;;;;;5041007;28;20032;-63
2024/02/03 01:56:59;;;;;;;3.75;2.63;;;7.00;80.40;;;;;;5037831;28;20025;-63
2024/02/03 01:59:28;;;;;;;3.30;2.75;;;6.90;80.50;;;;;;5046392;28;20033;-62
2024/02/03 02:01:57;;;;;;;3.50;2.67;;;6.90;80.60;;;;;;5040469;28;20064;-62
2024/02/03 02:04:29;;;;;;;5.28;2.63;;;6.90;80.80;;;;;;5046057;28;20377;-62
2024/02/03 02:06:55;;;;;;;2.88;2.50;;;6.80;80.80;;;;;;5042626;28;20044;-64
2024/02/03 02:09:23;;;;;;;3.05;2.50;;;6.90;81.00;;;;;;5041425;28;20119;-63
2024/02/03 02:11:49;;;;;;;3.60;2.60;;;6.80;81.20;;;;;;5041740;28;20043;-63
2024/02/03 02:14:15;;;;;;;3.83;2.58;;;6.80;81.30;;;;;;5045073;28;20040;-63
2024/02/03 02:16:41;;;;;;;3.20;2.45;;;6.80;81.50;;;;;;5045322;28;20120;-63
2024/02/03 02:19:07;;;;;;;3.35;2.75;;;6.80;81.70;;;;;;5044418;28;20057;-63
2024/02/03 02:21:32;;;;;;;2.92;2.72;;;6.80;81.90;;;;;;5042165;28;20556;-62
2024/02/03 02:23:58;;;;;;;2.80;2.50;;;6.80;82.00;;;;;;5044056;28;20033;-64
2024/02/03 02:26:24;;;;;;;3.70;2.58;;;6.80;82.10;;;;;;5042778;28;20056;-63
2024/02/03 02:28:51;;;;;;;2.70;2.50;;;6.80;82.20;;;;;;5045054;28;20128;-63
2024/02/03 02:31:17;;;;;;;3.88;2.67;;;6.80;82.30;;;;;;5045836;28;20057;-61
2024/02/03 02:33:42;;;;;;;4.45;2.83;;;6.90;82.40;;;;;;5039833;28;20102;-64
2024/02/03 02:36:08;;;;;;;3.40;2.60;;;6.90;82.40;;;;;;5047614;28;20033;-62
2024/02/03 02:38:34;;;;;;;3.03;2.60;;;6.90;82.40;;;;;;5042301;28;20041;-63
2024/02/03 02:41:00;;;;;;;2.83;2.47;;;6.90;82.40;;;;;;5036600;28;20036;-62
2024/02/03 02:43:25;;;;;;;3.00;2.53;;;6.90;82.40;;;;;;5037044;28;20439;-63
2024/02/03 02:45:51;;;;;;;2.85;2.50;;;7.00;82.30;;;;;;5043001;28;20447;-64
2024/02/03 02:48:16;;;;;;;2.65;2.30;;;7.00;82.20;;;;;;5045267;28;20404;-64
2024/02/03 02:50:42;;;;;;;3.53;2.85;;;7.00;82.20;;;;;;5042827;28;20156;-64
2024/02/03 02:53:08;;;;;;;3.42;2.30;;;7.00;82.00;;;;;;5040907;28;20036;-64
2024/02/03 02:55:34;;;;;;;2.60;2.40;;;7.00;82.00;;;;;;5044536;28;20556;-64
2024/02/03 02:58:00;;;;;;;3.08;2.53;;;7.10;82.00;;;;;;5043930;28;20136;-64
2024/02/03 03:00:25;;;;;;;2.83;2.50;;;7.10;82.00;;;;;;5043574;28;20045;-64
2024/02/03 03:02:51;;;;;;;3.22;2.58;;;7.10;82.00;;;;;;5045485;28;20067;-64
2024/02/03 03:05:16;;;;;;;3.42;2.83;;;7.10;82.00;;;;;;5043253;28;20037;-64
2024/02/03 03:07:43;;;;;;;2.95;2.65;;;7.10;82.00;;;;;;5046130;28;20036;-64
2024/02/03 03:10:09;;;;;;;2.85;2.50;;;7.20;81.90;;;;;;5042562;28;20072;-63
2024/02/03 03:12:35;;;;;;;3.00;2.67;;;7.20;81.80;;;;;;5042850;28;20032;-64
2024/02/03 03:15:01;;;;;;;3.00;2.42;;;7.20;81.70;;;;;;5045511;28;20381;-63
2024/02/03 03:17:26;;;;;;;4.00;2.90;;;7.20;81.50;;;;;;5043896;28;20431;-64
2024/02/03 03:19:52;;;;;;;3.33;2.60;;;7.30;81.50;;;;;;5047934;28;20048;-64
2024/02/03 03:22:18;;;;;;;2.72;2.42;;;7.20;81.20;;;;;;5040873;28;20475;-63
2024/02/03 03:24:44;;;;;;;2.97;2.35;;;7.30;81.20;;;;;;5040955;28;20075;-64
2024/02/03 03:27:09;;;;;;;2.70;2.50;;;7.20;81.00;;;;;;5044040;28;20512;-63
2024/02/03 03:29:35;;;;;;;3.20;2.30;;;7.30;80.90;;;;;;5040970;28;20042;-64
2024/02/03 03:32:00;;;;;;;3.83;2.58;;;7.20;80.80;;;;;;5049901;28;20033;-62
2024/02/03 03:34:26;;;;;;;3.33;2.55;;;7.20;80.80;;;;;;5039638;28;20056;-63
2024/02/03 03:36:52;;;;;;;3.15;2.50;;;7.20;80.80;;;;;;5044672;28;20052;-63
2024/02/03 03:39:17;;;;;;;3.10;2.70;;;7.20;80.90;;;;;;5040081;28;20530;-64
2024/02/03 03:41:43;;;;;;;3.20;2.90;;;7.10;80.80;;;;;;5042472;28;20033;-64
2024/02/03 03:44:08;;;;;;;2.97;2.63;;;7.10;80.90;;;;;;5038357;28;20586;-63
2024/02/03 03:46:34;;;;;;;3.17;2.63;;;7.10;81.00;;;;;;5041433;28;20344;-62
2024/02/03 03:49:00;;;;;;;3.30;2.72;;;7.10;81.00;;;;;;5043333;28;20044;-63
2024/02/03 03:51:25;;;;;;;4.00;2.90;;;7.10;81.00;;;;;;5041759;28;20451;-63
2024/02/03 03:53:51;;;;;;;2.90;2.63;;;7.20;81.10;;;;;;5043034;28;20124;-62
2024/02/03 03:56:16;;;;;;;3.17;2.83;;;7.10;81.00;;;;;;5043872;28;20033;-62
2024/02/03 03:58:42;;;;;;;3.22;2.78;;;7.20;81.00;;;;;;5044614;28;20492;-64
2024/02/03 04:01:11;;;;;;;3.22;2.80;;;7.20;81.00;;;;;;5042158;28;20021;-63
2024/02/03 04:03:37;;;;;;;3.78;3.05;;;7.20;80.80;;;;;;5047222;28;20052;-63
2024/02/03 04:06:02;;;;;;;3.25;2.78;;;7.20;80.90;;;;;;5043770;28;20408;-63
2024/02/03 04:08:28;;;;;;;3.95;3.00;;;7.20;80.90;;;;;;5041086;28;20033;-62
2024/02/03 04:10:53;;;;;;;4.13;3.15;;;7.20;80.90;;;;;;5040236;28;20033;-62
2024/02/03 04:13:19;;;;;;;3.55;2.97;;;7.20;80.80;;;;;;5041061;28;20041;-63
2024/02/03 04:15:45;;;;;;;4.22;3.08;;;7.40;80.90;;;;;;5044765;28;20033;-63
2024/02/03 04:18:11;;;;;;;3.53;3.17;;;7.30;81.00;;;;;;5044603;28;20029;-62
2024/02/03 04:20:36;;;;;;;3.22;2.92;;;7.30;80.90;;;;;;5050532;28;20037;-63
2024/02/03 04:23:02;;;;;;;4.25;3.20;;;7.30;80.90;;;;;;5044774;28;20164;-64
2024/02/03 04:25:27;;;;;;;8.07;4.00;;;7.30;80.80;;;;;;5043386;28;20049;-63
2024/02/03 04:27:53;;;;;;;5.03;3.15;;;7.30;80.70;;;;;;5045244;28;20131;-62
2024/02/03 04:30:19;;;;;;;4.43;3.50;;;7.30;80.60;;;;;;5044301;28;20191;-63
2024/02/03 04:32:45;;;;;;;4.75;3.20;;;7.30;80.50;;;;;;5053334;28;20131;-63
2024/02/03 04:35:11;;;;;;;3.78;3.10;;;7.30;80.50;;;;;;5049194;28;20028;-63
2024/02/03 04:37:37;;;;;;;4.78;3.17;;;7.30;80.50;;;;;;5048769;28;20037;-63
2024/02/03 04:40:03;;;;;;;3.55;2.95;;;7.30;80.30;;;;;;5042508;28;20090;-63
2024/02/03 04:42:29;;;;;;;3.67;3.35;;;7.30;80.30;;;;;;5043552;28;20032;-61
2024/02/03 04:44:55;;;;;;;3.63;2.95;;;7.30;80.30;;;;;;5048286;28;20037;-63
2024/02/03 04:47:20;;;;;;;3.47;3.08;;;7.30;80.10;;;;;;5050648;28;20033;-63
2024/02/03 04:49:46;;;;;;;5.22;3.10;;;7.30;80.00;;;;;;5048483;28;20037;-63
2024/02/03 04:52:12;;;;;;;3.65;3.00;;;7.40;80.00;;;;;;5045010;28;20075;-63
2024/02/03 04:54:37;;;;;;;3.38;2.97;;;7.30;79.70;;;;;;5043143;28;20405;-63
2024/02/03 04:57:03;;;;;;;3.33;3.03;;;7.30;79.60;;;;;;5046412;28;20021;-63
2024/02/03 04:59:28;;;;;;;3.45;3.13;;;7.30;79.40;;;;;;5046590;28;20059;-63
2024/02/03 05:01:54;;;;;;;3.55;3.20;;;7.30;79.40;;;;;;5041198;28;20036;-63
2024/02/03 05:04:20;;;;;;;3.75;3.10;;;7.30;79.30;;;;;;5044013;28;20570;-61
2024/02/03 05:06:45;;;;;;;3.05;2.65;;;7.20;79.30;;;;;;5042550;28;20041;-61
2024/02/03 05:09:12;;;;;;;3.13;2.83;;;7.20;79.30;;;;;;5043779;28;20041;-63
2024/02/03 05:11:37;;;;;;;3.03;2.70;;;7.20;79.30;;;;;;5045669;28;20053;-63
2024/02/03 05:14:03;;;;;;;4.05;3.13;;;7.10;79.30;;;;;;5045154;28;20611;-64
2024/02/03 05:16:28;;;;;;;3.95;3.17;;;7.10;79.30;;;;;;5050218;28;20033;-63
2024/02/03 05:18:55;;;;;;;3.80;3.03;;;7.10;79.40;;;;;;5044268;28;20516;-63
2024/02/03 05:21:21;;;;;;;3.38;2.92;;;7.00;79.40;;;;;;5041764;28;21003;-62
2024/02/03 05:23:46;;;;;;;4.38;3.53;;;7.00;79.40;;;;;;5045034;28;20056;-63
2024/02/03 05:26:12;;;;;;;3.42;3.00;;;6.90;79.40;;;;;;5043106;28;20368;-63
2024/02/03 05:28:37;;;;;;;3.58;2.92;;;6.90;79.30;;;;;;5038853;28;20075;-63
2024/02/03 05:31:03;;;;;;;3.47;2.72;;;6.90;80.20;;;;;;5046490;28;20423;-62
2024/02/03 05:33:30;;;;;;;4.22;3.03;;;6.90;79.40;;;;;;5043757;28;20029;-63
2024/02/03 05:35:56;;;;;;;4.00;2.97;;;6.80;79.50;;;;;;5040814;28;20403;-63
2024/02/03 05:38:22;;;;;;;3.28;2.80;;;6.80;79.50;;;;;;5046171;28;20108;-62
2024/02/03 05:40:47;;;;;;;3.25;2.88;;;6.70;79.40;;;;;;5041458;28;20037;-63
2024/02/03 05:43:13;;;;;;;4.05;3.15;;;6.70;79.60;;;;;;5043816;28;20040;-61
2024/02/03 05:45:39;;;;;;;3.60;2.90;;;6.70;79.60;;;;;;5040162;28;20082;-61
2024/02/03 05:48:05;;;;;;;3.63;2.83;;;6.60;79.50;;;;;;5037962;28;20041;-62
2024/02/03 05:50:30;;;;;;;3.47;2.97;;;6.60;79.40;;;;;;5043492;28;20026;-62
2024/02/03 05:52:56;;;;;;;3.00;2.70;;;6.60;79.30;;;;;;5044823;28;20037;-62
2024/02/03 05:55:22;;;;;;;3.17;2.88;;;6.60;79.20;;;;;;5042202;28;20037;-63
2024/02/03 05:57:51;;;;;;;5.00;3.40;;;6.60;79.20;;;;;;5044584;28;20051;-62
2024/02/03 06:00:18;;;;;;;4.47;3.40;;;6.50;79.10;;;;;;5045681;28;20139;-63
2024/02/03 06:02:44;;;;;;;3.83;3.20;;;6.50;79.20;;;;;;5044391;28;20068;-63
2024/02/03 06:05:10;;;;;;;3.75;2.88;;;6.50;79.00;;;;;;5045033;28;20045;-63
2024/02/03 06:07:35;;;;;;;3.95;3.17;;;6.40;79.10;;;;;;5046300;28;20040;-63
2024/02/03 06:10:01;;;;;;;3.67;3.17;;;6.40;79.20;;;;;;5041246;28;20025;-63
2024/02/03 06:12:26;;;;;;;3.30;2.85;;;6.40;79.20;;;;;;5042897;28;20496;-62
2024/02/03 06:14:52;;;;;;;3.80;3.10;;;6.30;79.30;;;;;;5045903;28;20041;-60
2024/02/03 06:17:18;;;;;;;4.97;3.60;;;6.30;79.50;;;;;;5042681;28;20055;-62
2024/02/03 06:19:44;;;;;;;3.58;3.25;;;6.30;79.60;;;;;;5041947;28;20112;-62
2024/02/03 06:22:09;;;;;;;4.50;3.60;;;6.30;79.70;;;;;;5044796;28;20129;-61
2024/02/03 06:24:35;;;;;;;4.60;3.50;;;6.20;79.90;;;;;;5042167;28;20516;-63
2024/02/03 06:27:00;;;;;;;4.68;3.13;;;6.20;80.00;;;;;;5046066;28;20037;-63
2024/02/03 06:29:26;;;;;;;5.28;3.38;;;6.10;80.00;;;;;;5041964;28;20025;-63
2024/02/03 06:31:51;;;;;;;5.22;3.72;;;6.20;80.20;;;;;;5040147;28;20102;-63
2024/02/03 06:34:17;;;;;;;4.72;3.70;;;6.10;80.00;;;;;;5033177;28;20040;-60
2024/02/03 06:36:43;;;;;;;4.50;3.65;;;6.10;80.00;;;;;;5039776;28;20070;-62
2024/02/03 06:39:08;;;;;;;5.18;3.75;;;6.10;80.00;;;;;;5047325;28;20029;-62
2024/02/03 06:41:35;;;;;;;6.13;4.18;;;6.10;79.90;;;;;;5041174;28;20056;-61
2024/02/03 06:44:00;;;;;;;5.63;4.25;;;6.10;79.90;;;;;;5038114;28;20056;-62
2024/02/03 06:46:26;;;;;;;4.10;3.30;;;6.00;79.80;;;;;;5038400;28;20493;-62
2024/02/03 06:48:51;;;;;;;4.85;3.60;;;6.00;79.90;;;;;;5036776;28;20579;-61
2024/02/03 06:51:17;;;;;;;4.57;3.60;;;6.00;79.90;;;;;;5039893;28;20063;-62
2024/02/03 06:53:42;;;;;;;4.75;3.88;;;6.00;80.00;;;;;;5040562;28;20041;-63
2024/02/03 06:56:09;;;;;;;4.13;3.60;;;6.00;80.00;;;;;;5036908;28;20536;-63
2024/02/03 06:58:35;;;;;;;4.72;3.63;;;6.00;80.00;;;;;;5040147;28;20115;-62
2024/02/03 07:01:00;;;;;;;5.50;4.00;;;6.00;80.00;;;;;;5043560;28;20115;-62
2024/02/03 07:03:33;;;;;;;5.40;4.03;;;6.00;80.00;;;;;;5007167;28;20555;-63
2024/02/03 07:05:58;;;;;;;4.85;3.92;;;5.90;80.10;;;;;;4987094;28;20034;-63
2024/02/03 07:08:24;;;;;;;7.38;4.43;;;5.80;80.10;;;;;;4988601;28;20067;-62
2024/02/03 07:10:49;;;;;;;5.75;4.22;;;5.90;80.20;;;;;;4985019;28;20038;-63
2024/02/03 07:13:15;;;;;;;5.88;4.63;;;5.90;80.40;;;;;;4980482;28;20552;-63
2024/02/03 07:15:40;;;;;;;6.85;4.18;;;5.80;80.40;;;;;;4978436;28;20084;-63
2024/02/03 07:18:06;;;;;;;5.53;4.45;;;5.80;80.60;;;;;;4981120;28;20085;-63
2024/02/03 07:20:33;;;;;;;6.18;4.10;;;5.80;80.60;;;;;;4986253;28;20049;-63
2024/02/03 07:22:58;;;;;;;4.38;3.80;;;5.80;80.80;;;;;;4981546;28;20034;-63
2024/02/03 07:25:24;;;;;;;5.47;4.40;;;5.80;80.90;;;;;;4967632;28;20045;-63
2024/02/03 07:27:49;;;;;;;5.65;4.70;;;5.80;81.10;;;;;;4964129;28;20046;-63
2024/02/03 07:30:15;;;;;;;8.32;5.25;;;5.70;81.10;;;;;;4960740;28;20430;-63
2024/02/03 07:32:42;;;;;;;7.68;5.13;;;5.80;81.30;;;;;;4960723;28;20035;-63
2024/02/03 07:35:08;;;;;;;6.07;5.15;;;5.80;81.40;;;;;;4966787;28;20026;-61
2024/02/03 07:37:35;;;;;;;7.43;5.07;;;5.80;81.60;;;;;;4982022;28;20045;-63
2024/02/03 07:40:01;;;;;;;7.03;5.75;;;5.80;81.70;;;;;;4987115;28;20030;-63
2024/02/03 07:42:26;;;;;;;7.63;5.68;;;5.80;81.80;;;;;;4980665;28;20482;-63
2024/02/03 07:44:52;;;;;;;8.93;6.00;;;5.80;81.90;;;;;;4979601;28;20045;-63
2024/02/03 07:47:17;;;;;;;8.63;6.47;;;5.80;82.10;;;;;;4982091;28;20653;-63
2024/02/03 07:49:43;;;;;;;10.05;6.65;;;5.80;82.30;;;;;;4984088;28;20544;-63
2024/02/03 07:52:08;;;;;;;11.25;6.70;;;5.80;82.50;;;;;;4983631;28;20123;-63
2024/02/03 07:54:34;;;;;;;9.10;6.30;;;5.80;82.50;;;;;;4988325;28;20034;-64
2024/02/03 07:57:00;;;;;;;8.20;5.75;;;5.90;82.60;;;;;;4982126;28;20042;-63
2024/02/03 07:59:27;;;;;;;7.90;5.05;;;5.90;82.80;;;;;;4993582;28;20054;-63
2024/02/03 08:01:53;;;;;;;7.57;5.10;;;5.90;83.10;;;;;;4994521;28;20510;-63
2024/02/03 08:04:18;;;;;;;5.85;4.85;;;6.00;83.30;;;;;;4989714;28;20037;-61
2024/02/03 08:06:44;;;;;;;7.22;5.07;;;6.00;83.50;;;;;;4990178;28;20034;-63
2024/02/03 08:09:09;;;;;;;7.35;5.32;;;6.10;83.70;;;;;;4991902;28;20041;-63
2024/02/03 08:11:35;;;;;;;5.75;4.80;;;6.10;83.90;;;;;;4996748;28;20043;-63
2024/02/03 08:14:01;;;;;;;7.57;5.50;;;6.20;84.00;;;;;;4996258;28;20042;-61
2024/02/03 08:16:26;;;;;;;6.53;5.03;;;6.20;84.10;;;;;;4988357;28;20030;-64
2024/02/03 08:18:52;;;;;;;6.18;4.97;;;6.30;84.20;;;;;;4969651;28;20323;-60
2024/02/03 08:21:17;;;;;;;6.82;5.00;;;6.40;84.20;;;;;;4980132;28;20035;-62
2024/02/03 08:23:43;;;;;;;6.00;5.00;;;6.50;84.30;;;;;;4982118;28;20176;-63
2024/02/03 08:26:10;;;;;;;6.13;4.70;;;6.60;84.30;;;;;;4989968;28;20033;-62
2024/02/03 08:28:35;;;;;;;6.57;4.72;;;6.70;84.30;;;;;;4982915;28;20121;-62
2024/02/03 08:31:01;;;;;;;5.50;4.70;;;6.80;84.30;;;;;;4983057;28;20023;-63
2024/02/03 08:33:27;;;;;;;5.85;4.90;;;6.90;84.30;;;;;;4983674;28;20072;-63
2024/02/03 08:35:52;;;;;;;5.85;4.75;;;6.90;84.10;;;;;;4985522;28;20037;-62
2024/02/03 08:38:18;;;;;;;5.88;4.40;;;7.10;84.10;;;;;;4988882;28;20038;-63
2024/02/03 08:40:44;;;;;;;6.88;4.68;;;7.10;84.00;;;;;;4987955;28;20034;-63
2024/02/03 08:43:11;;;;;;;6.25;4.88;;;7.20;83.80;;;;;;4981570;28;20038;-63
2024/02/03 08:45:36;;;;;;;6.95;4.90;;;7.30;83.70;;;;;;4985690;28;20185;-62
2024/02/03 08:48:02;;;;;;;5.88;4.63;;;7.40;83.60;;;;;;4985393;28;20133;-64
2024/02/03 08:50:28;;;;;;;6.72;4.50;;;7.50;83.50;;;;;;4988184;28;20041;-63
2024/02/03 08:52:53;;;;;;;4.63;4.10;;;7.60;83.40;;;;;;4989611;28;20030;-62
2024/02/03 08:55:19;;;;;;;5.05;4.32;;;7.70;83.20;;;;;;4984439;28;20502;-62
2024/02/03 08:57:44;;;;;;;4.70;4.10;;;7.80;83.10;;;;;;4985954;28;20034;-63
2024/02/03 09:00:10;;;;;;;8.15;4.55;;;7.80;82.80;;;;;;4981669;28;20041;-63
2024/02/03 09:02:36;;;;;;;5.57;4.72;;;7.90;82.70;;;;;;4988618;28;20077;-61
2024/02/03 09:05:02;;;;;;;5.97;3.90;;;8.00;82.60;;;;;;4992653;28;20065;-61
2024/02/03 09:07:28;;;;;;;5.60;4.38;;;8.00;82.40;;;;;;4990911;28;20043;-62
2024/02/03 09:09:53;;;;;;;5.70;4.30;;;8.10;82.20;;;;;;4984491;28;20019;-63
2024/02/03 09:12:20;;;;;;;5.00;4.07;;;8.20;82.20;;;;;;4982561;28;20196;-63
2024/02/03 09:14:46;;;;;;;5.85;3.97;;;8.20;82.00;;;;;;4984246;28;20038;-63
2024/02/03 09:17:12;;;;;;;4.22;3.70;;;8.30;81.70;;;;;;4983240;28;20093;-63
2024/02/03 09:19:38;;;;;;;4.18;3.65;;;8.40;81.50;;;;;;4983665;28;20177;-63
2024/02/03 09:22:03;;;;;;;4.53;3.70;;;8.50;81.10;;;;;;4986893;28;20746;-61
2024/02/03 09:24:29;;;;;;;5.03;3.90;;;8.50;80.90;;;;;;4981327;28;20035;-61
2024/02/03 09:26:54;;;;;;;5.20;4.20;;;8.60;80.80;;;;;;4980623;28;20496;-63
2024/02/03 09:29:20;;;;;;;5.20;3.70;;;8.70;80.90;;;;;;4985295;28;20103;-63
2024/02/03 09:31:45;;;;;;;8.57;4.63;;;8.70;80.80;;;;;;4986594;28;20038;-63
2024/02/03 09:34:11;;;;;;;5.18;3.90;;;8.80;80.40;;;;;;4988570;28;20490;-63
2024/02/03 09:36:41;;;;;;;4.03;3.60;;;8.90;79.90;;;;;;4987237;28;20034;-61
2024/02/03 09:39:07;;;;;;;4.25;3.70;;;8.90;79.60;;;;;;4986272;28;20089;-62
2024/02/03 09:41:34;;;;;;;4.55;3.55;;;9.00;79.10;;;;;;4984393;28;20545;-62
2024/02/03 09:44:01;;;;;;;4.68;4.00;;;9.10;79.30;;;;;;4981268;28;20042;-63
2024/02/03 09:46:27;;;;;;;4.15;3.50;;;9.10;78.70;;;;;;4983864;28;20041;-62
2024/02/03 09:48:52;;;;;;;4.13;3.67;;;9.20;79.00;;;;;;4985169;28;20041;-63
2024/02/03 09:51:19;;;;;;;4.95;4.10;;;9.20;78.10;;;;;;4989151;28;20073;-62
2024/02/03 09:53:47;;;;;;;4.45;3.80;;;9.30;77.50;;;;;;4986973;28;20174;-61
2024/02/03 09:56:12;;;;;;;3.88;3.33;;;9.30;77.90;;;;;;4988821;28;20035;-62
2024/02/03 09:58:38;;;;;;;4.88;3.60;;;9.40;78.00;;;;;;4985154;28;20513;-64
2024/02/03 10:01:04;;;;;;;4.22;3.30;;;9.50;77.80;;;;;;4991598;28;20533;-62
2024/02/03 10:03:29;;;;;;;3.42;3.13;;;9.50;77.20;;;;;;4983789;28;20042;-61
2024/02/03 10:05:59;;;;;;;4.90;3.58;;;9.60;76.90;;;;;;4985349;28;20539;-63
2024/02/03 10:08:25;;;;;;;4.38;3.47;;;9.70;76.50;;;;;;4986557;28;20072;-62
2024/02/03 10:10:55;;;;;;;3.30;3.00;;;9.70;76.60;;;;;;4984525;28;20558;-63
2024/02/03 10:13:24;;;;;;;3.60;2.88;;;9.80;75.80;;;;;;4985966;28;20038;-63
2024/02/03 10:16:01;;;;;;;3.28;2.75;;;9.90;76.40;;;;;;4980380;28;20045;-61
2024/02/03 10:18:27;;;;;;;4.13;2.70;;;10.00;76.00;;;;;;4983318;28;20180;-62
2024/02/03 10:20:54;;;;;;;3.85;3.08;;;10.00;76.40;;;;;;4987379;28;20050;-63
2024/02/03 10:23:20;;;;;;;4.35;2.90;;;10.10;76.30;;;;;;4982988;28;20057;-63
2024/02/03 10:25:45;;;;;;;3.88;3.47;;;10.20;76.30;;;;;;4990489;28;20502;-63
2024/02/03 10:28:11;;;;;;;5.68;4.03;;;10.30;76.00;;;;;;4989217;28;20034;-62
2024/02/03 10:30:38;;;;;;;3.97;3.58;;;10.40;75.20;;;;;;4987834;28;20122;-63
2024/02/03 10:33:05;;;;;;;5.55;3.60;;;10.40;74.70;;;;;;4980398;28;20458;-63
2024/02/03 10:35:32;;;;;;;4.03;3.40;;;10.50;74.80;;;;;;4981788;28;20053;-61
2024/02/03 10:37:58;;;;;;;3.88;3.17;;;10.60;75.10;;;;;;4984655;28;20073;-64
2024/02/03 10:40:25;;;;;;;3.00;2.70;;;10.60;75.90;;;;;;4982816;28;20065;-63
2024/02/03 10:42:53;;;;;;;3.33;2.95;;;10.70;75.00;;;;;;4976782;28;20042;-63
2024/02/03 10:45:29;;;;;;;3.33;3.03;;;10.80;74.90;;;;;;4979070;28;20033;-63
2024/02/03 10:47:57;;;;;;;2.95;2.60;;;10.90;74.80;;;;;;4977566;28;20584;-62
2024/02/03 10:50:37;;;;;;;6.63;2.85;;;11.00;74.90;;;;;;4980448;28;20030;-62
2024/02/03 10:53:11;;;;;;;5.40;2.67;;;11.10;74.40;;;;;;4979131;28;20126;-63
2024/02/03 10:55:40;;;;;;;4.28;2.45;;;11.20;73.20;;;;;;4977378;28;20908;-63
2024/02/03 10:58:06;;;;;;;3.28;2.65;;;11.30;73.20;;;;;;4983668;28;20058;-64
2024/02/03 11:00:32;;;;;;;4.18;3.08;;;11.40;73.30;;;;;;4976556;28;20044;-62
2024/02/03 11:02:59;;;;;;;3.15;2.40;;;11.40;72.90;;;;;;4977518;28;20042;-64
2024/02/03 11:05:26;;;;;;;6.57;2.85;;;11.50;72.50;;;;;;4983596;28;20069;-64
2024/02/03 11:07:52;;;;;;;2.50;2.17;;;11.50;72.60;;;;;;4978879;28;20050;-64
2024/02/03 11:10:25;;;;;;;5.15;2.10;;;11.60;72.80;;;;;;4977212;28;20221;-63
2024/02/03 11:12:51;;;;;;;2.92;2.63;;;11.60;73.30;;;;;;4983260;28;20037;-63
2024/02/03 11:15:16;;;;;;;4.50;2.40;;;11.70;72.10;;;;;;4986473;28;20042;-63
2024/02/03 11:17:43;;;;;;;3.40;2.40;;;11.80;72.80;;;;;;4990982;28;20038;-63
2024/02/03 11:20:19;;;;;;;3.42;2.80;;;11.80;72.70;;;;;;4983661;28;20033;-62
2024/02/03 11:22:52;;;;;;;2.35;2.15;;;11.90;72.30;;;;;;4985341;28;20414;-63
2024/02/03 11:25:18;;;;;;;2.78;2.50;;;11.90;72.50;;;;;;4988122;28;20058;-64
2024/02/03 11:27:46;;;;;;;2.65;2.42;;;12.00;72.40;;;;;;4985589;28;20962;-63
2024/02/03 11:30:14;;;;;;;3.05;2.45;;;12.10;71.50;;;;;;4986089;28;20030;-63
2024/02/03 11:32:41;;;;;;;2.38;2.17;;;12.10;71.50;;;;;;4986501;28;20054;-63
2024/02/03 11:35:08;;;;;;;3.63;2.55;;;12.20;72.10;;;;;;4997185;28;20029;-63
2024/02/03 11:37:34;;;;;;;2.28;2.08;;;12.30;73.20;;;;;;4983765;28;20502;-63
2024/02/03 11:40:07;;;;;;;2.17;1.95;;;12.40;72.30;;;;;;4985215;28;20027;-63
2024/02/03 11:42:33;;;;;;;2.40;2.15;;;12.50;71.80;;;;;;4988174;28;20600;-63
2024/02/03 11:45:02;;;;;;;2.78;2.33;;;12.60;72.30;;;;;;4989358;28;20038;-64
2024/02/03 11:47:29;;;;;;;2.83;2.10;;;12.60;72.00;;;;;;4983840;28;20109;-63
2024/02/03 11:49:55;;;;;;;2.25;2.05;;;12.70;71.80;;;;;;4988817;28;20048;-62
2024/02/03 11:52:23;;;;;;;2.03;1.77;;;12.80;71.50;;;;;;4989557;28;20046;-63
2024/02/03 11:54:49;;;;;;;2.10;1.90;;;12.90;71.10;;;;;;4992625;28;20033;-63
2024/02/03 11:57:15;;;;;;;1.92;1.83;;;12.90;71.30;;;;;;4989608;28;20514;-63
2024/02/03 11:59:41;;;;;;;2.97;1.90;;;13.00;71.30;;;;;;4988361;28;20510;-63
2024/02/03 12:02:07;;;;;;;2.70;1.70;;;13.10;71.30;;;;;;4991154;28;20061;-63
2024/02/03 12:04:33;;;;;;;1.90;1.70;;;13.10;70.40;;;;;;4986861;28;20034;-64
2024/02/03 12:06:59;;;;;;;1.98;1.77;;;13.20;70.50;;;;;;4992915;28;20034;-63
2024/02/03 12:09:26;;;;;;;1.95;1.60;;;13.20;70.40;;;;;;4988616;28;20031;-63
2024/02/03 12:11:53;;;;;;;1.83;1.73;;;13.30;69.90;;;;;;4990230;28;20069;-63
2024/02/03 12:14:20;;;;;;;1.52;1.42;;;13.30;70.00;;;;;;4985718;28;20462;-63
2024/02/03 12:16:46;;;;;;;1.70;1.60;;;13.40;70.00;;;;;;4983136;28;20038;-63
2024/02/03 12:19:12;;;;;;;1.70;1.58;;;13.50;69.90;;;;;;4981737;28;20678;-61
2024/02/03 12:21:38;;;;;;;1.80;1.70;;;13.50;69.00;;;;;;4991184;28;20050;-63
2024/02/03 12:24:07;;;;;;;2.33;1.63;;;13.50;69.90;;;;;;4982509;28;20584;-63
2024/02/03 12:26:33;;;;;;;2.40;1.60;;;13.60;69.10;;;;;;4987088;28;20031;-63
2024/02/03 12:29:02;;;;;;;2.63;1.60;;;13.60;69.00;;;;;;4984178;28;20031;-63
2024/02/03 12:31:28;;;;;;;1.70;1.60;;;13.70;68.40;;;;;;4988248;28;20561;-63
2024/02/03 12:33:54;;;;;;;2.10;1.83;;;13.80;68.30;;;;;;4988909;28;20027;-63
2024/02/03 12:36:20;;;;;;;3.00;1.80;;;13.80;67.90;;;;;;4987435;28;20023;-61
2024/02/03 12:38:46;;;;;;;1.90;1.70;;;13.80;67.80;;;;;;4978686;28;20506;-63
2024/02/03 12:41:12;;;;;;;1.98;1.77;;;13.80;67.40;;;;;;4979762;28;20117;-62
2024/02/03 12:43:38;;;;;;;2.60;1.50;;;13.80;67.40;;;;;;4987796;28;20608;-63
2024/02/03 12:46:04;;;;;;;1.50;1.23;;;13.80;67.60;;;;;;4989614;28;20110;-63
2024/02/03 12:48:30;;;;;;;1.52;1.38;;;13.80;67.40;;;;;;4989684;28;20038;-62